Decoded Metar for LQTZ ( in _UNIDENTIFIED) (IATA:) | Meteo·Mobile Aviation Weather
aviador You're here:

LQTZ Decoded Metar

in _UNIDENTIFIED
Report Time2018-09-22 02:30:00
UTC Time2018-09-22 02:58:00
Flight Rules vfr VFR
WindCalm
Visibility9999 m
Phenomena:N/A
Clouds:N/A
CeilingNone
Temp12°C (ISA -1)
Dew Point12°C (100% RH)
QNH1016 hPa
Density Alt974 ft
Elevation1,004 ft
Report Wrong Elevation
Raw Report
METAR LQTZ 220230Z 00000KT CAVOK 12/12 Q1016=

Extra information for LQTZ:More info

Metar Taf Metar & Taf Last 4 Metars F.Rules Stats Wind Profile Meteogram Temp Stats Metar ALERT Operation Metar Decoded Social comments